AirNav   Everest Fuels
 
 750 users online  

OG05 Sundance Meadows Airport
Bend, Oregon, USA

GOING TO BEND?


FAA INFORMATION EFFECTIVE 21 MAY 2020

Location

FAA Identifier: OG05
Lat/Long: 43-59-24.0000N 121-12-22.0000W
43-59.400000N 121-12.366667W
43.9900000,-121.2061111
(estimated)
Elevation: 3850 ft. / 1173 m (estimated)
Variation: 18E (1995)
From city: 7 miles SE of BEND, OR
Time zone: UTC -7 (UTC -8 during Standard Time)
Zip code: 97702

Airport Operations

Airport use: Private use. Permission required prior to landing
Activation date: 03/1995
Control tower: no
ARTCC: SEATTLE CENTER
FSS: MC MINNVILLE FLIGHT SERVICE STATION
Attendance: NOV-FEB 1000-1400, MAR-OCT 0800-1600
Wind indicator: no
Segmented circle: no

Airport Communications

WX AWOS-3 at BDN (6 nm N): 134.425 (541-382-1477)
WX AWOS-3PT at S21 (13 nm SW): 128.325 (541-593-4623)
WX ASOS at RDM (16 nm N): 119.025 (541-504-8743)

Nearby radio navigation aids

VOR radial/distance  VOR name  Freq  Var
DSDr147/16.3DESCHUTES VORTAC117.6018E

Airport Services

Runway Information

Runway 12/30

Dimensions: 3450 x 130 ft. / 1052 x 40 m
Surface: turf/gravel
FIRST 200 FT EACH END RY ROUGH.
RUNWAY 12  RUNWAY 30
Traffic pattern: leftleft
Obstructions: 40 ft. trees, 450 ft. from runway40 ft. trees, 800 ft. from runway

Airport Ownership and Management from official FAA records

Ownership: Privately-owned
Owner: SUNDANCE MEADOWS PROPERTY
60335 ARNOLD MARKET ROAD
BEND, OR 97702
Phone 541-389-7003
Manager: STEVE HELLAND
60335 ARNOLD MKT RD
BEND, OR 97702
Phone 541-389-7003
ALSO KELLY DUREN

Additional Remarks

CLOSED FROM 3/1 THRU 10/31 ANNUALLY
FOR CD CTC SEATTLE ARTCC AT 253-351-3694.

Instrument Procedures

There are no published instrument procedures at OG05.

Some nearby airports with instrument procedures:

KBDN - Bend Municipal Airport (6 nm N)
S21 - Sunriver Airport (13 nm SW)
KRDM - Roberts Field Airport (16 nm N)
S39 - Prineville Airport (22 nm NE)
S33 - Madras Municipal Airport (41 nm N)
 
Loc | Ops | Rwys | IFR | FBO | Links
Com | Nav | Svcs | Stats | Notes
Area around OG05 (Sundance Meadows Airport)
 
Road maps at: MapQuest Bing Google
 
Aerial photo
WARNING: Photo may not be current or correct
Aerial photo of OG05 (Sundance Meadows Airport)
Do you have a better or more recent aerial photo of Sundance Meadows Airport that you would like to share? If so, please send us your photo.

 
Sectional chart

 
Airport distance calculator
Flying to Sundance Meadows Airport? Find the distance to fly.

From to OG05

Sunrise and sunset
Times for 06-Jun-2020
 Local
(UTC-7)
 Zulu
(UTC)
Morning civil twilight04:4811:48
Sunrise05:2312:23
Sunset20:4403:44
Evening civil twilight21:2004:20

Current date and time
Zulu (UTC)  07-Jun-2020 03:37:38
Local (UTC-7)  06-Jun-2020 20:37:38
 
METAR
KBDN 
6nm N 
070315Z AUTO 28006KT 10SM CLR 09/01 A2986 RMK AO2
KS21 
13nm SW 
070310Z AUTO 23007KT 10SM FEW022 SCT031 BKN036 04/M01 A2991 RMK AO2
KRDM 
16nm N 
070256Z AUTO 29013KT 10SM OVC100 09/01 A2984 RMK AO2 SLP101 T00940006 53010
TAF
KBDN 
6nm N 
070038Z 0701/0724 24008G18KT P6SM VCSH BKN040 OVC050 FM070600 23011KT P6SM OVC050 FM071500 24010KT P6SM OVC040 FM071800 29014G24KT P6SM OVC050
KRDM 
16nm N 
062136Z 0622/0718 29014KT P6SM VCSH SCT050 BKN070 FM070000 29017G25KT P6SM VCSH BKN050 OVC060 FM070400 30017G24KT P6SM OVC050 FM070900 23015KT P6SM OVC050 FM071500 28014KT P6SM OVC040
NOTAMs
Click for the latest NOTAMs
NOTAMs are issued by the DoD/FAA and will open in a separate window not controlled by AirNav.

 

 
 

Would you like to see your business listed on this page?

 If your business provides an interesting product or service to pilots, flight crews, aircraft, or users of the Sundance Meadows Airport, you should consider listing it here.  To start the listing process, click on the button below
 
Add a business
 

Other Pages about Sundance Meadows Airport

Update a link
 
Copyright © AirNav, LLC. All rights reserved. Privacy Policy  Contact